createdAt,value
2023-01-23T00:01:25.363Z,0.13
2023-01-23T00:03:53.258Z,0.13
2023-01-23T00:06:20.133Z,0.16
2023-01-23T00:08:47.151Z,0.14
2023-01-23T00:11:21.960Z,0.14
2023-01-23T00:13:48.767Z,0.12
2023-01-23T00:16:18.091Z,0.14
2023-01-23T00:18:45.085Z,0.15
2023-01-23T00:21:13.864Z,0.14
2023-01-23T00:23:49.724Z,0.13
2023-01-23T00:26:18.707Z,0.11
2023-01-23T00:28:46.489Z,0.04
2023-01-23T00:31:28.620Z,0.06
2023-01-23T00:34:01.029Z,0.11
2023-01-23T00:36:33.356Z,0.14
2023-01-23T00:39:00.419Z,0.14
2023-01-23T00:41:27.285Z,0.15
2023-01-23T00:43:53.994Z,0.16
2023-01-23T00:46:21.146Z,0.16
2023-01-23T00:48:48.045Z,0.19
2023-01-23T00:51:14.690Z,0.14
2023-01-23T00:53:41.366Z,0.10
2023-01-23T00:56:08.197Z,0.09
2023-01-23T00:58:34.930Z,0.05
2023-01-23T01:01:01.438Z,0.04
2023-01-23T01:03:28.331Z,0.07
2023-01-23T01:05:54.868Z,0.07
2023-01-23T01:08:21.393Z,0.11
2023-01-23T01:10:47.805Z,0.06
2023-01-23T01:13:14.504Z,0.05
2023-01-23T01:15:40.975Z,0.07
2023-01-23T01:18:07.623Z,0.07
2023-01-23T01:20:34.312Z,0.04
2023-01-23T01:23:01.085Z,0.04
2023-01-23T01:25:27.769Z,0.03
2023-01-23T01:27:55.963Z,0.04
2023-01-23T01:30:25.709Z,0.05
2023-01-23T01:32:52.094Z,-0.01
2023-01-23T01:35:18.822Z,0.02
2023-01-23T01:37:45.440Z,0.03
2023-01-23T01:40:18.309Z,0.07
2023-01-23T01:42:49.712Z,0.04
2023-01-23T01:45:53.667Z,0.03
2023-01-23T01:48:24.300Z,0.06
2023-01-23T01:50:51.869Z,0.08
2023-01-23T01:53:19.347Z,0.07
2023-01-23T01:55:46.582Z,0.03
2023-01-23T01:58:14.051Z,0.04
2023-01-23T02:00:40.899Z,0.07
2023-01-23T02:03:07.769Z,0.02
2023-01-23T02:05:36.333Z,0.01
2023-01-23T02:08:11.015Z,0.01
2023-01-23T02:10:38.355Z,-0.04
2023-01-23T02:13:32.459Z,-0.07
2023-01-23T02:16:01.464Z,-0.10
2023-01-23T02:18:30.592Z,-0.14
2023-01-23T02:21:01.443Z,-0.11
2023-01-23T02:23:47.248Z,-0.10
2023-01-23T02:26:17.988Z,-0.10
2023-01-23T02:28:46.430Z,-0.11
2023-01-23T02:31:14.003Z,-0.15
2023-01-23T02:33:40.428Z,-0.13
2023-01-23T02:36:08.953Z,-0.16
2023-01-23T02:38:42.792Z,-0.15
2023-01-23T02:41:12.288Z,-0.12
2023-01-23T02:43:39.379Z,-0.13
2023-01-23T02:46:08.148Z,-0.17
2023-01-23T02:48:35.369Z,-0.18
2023-01-23T02:51:02.032Z,-0.18
2023-01-23T02:53:29.411Z,-0.17
2023-01-23T02:55:57.020Z,-0.22
2023-01-23T02:58:42.220Z,-0.21
2023-01-23T03:01:09.286Z,-0.23
2023-01-23T03:03:35.737Z,-0.28
2023-01-23T03:06:04.030Z,-0.23
2023-01-23T03:08:34.137Z,-0.21
2023-01-23T03:11:01.418Z,-0.18
2023-01-23T03:13:28.368Z,-0.09
2023-01-23T03:15:57.395Z,-0.15
2023-01-23T03:18:27.608Z,-0.17
2023-01-23T03:20:54.295Z,-0.15
2023-01-23T03:23:20.675Z,-0.20
2023-01-23T03:25:48.879Z,-0.23
2023-01-23T03:28:34.258Z,-0.22
2023-01-23T03:31:00.603Z,-0.25
2023-01-23T03:33:27.205Z,-0.26
2023-01-23T03:35:53.568Z,-0.23
2023-01-23T03:38:20.151Z,-0.27
2023-01-23T03:41:08.985Z,-0.27
2023-01-23T03:43:35.391Z,-0.26
2023-01-23T03:46:02.247Z,-0.24
2023-01-23T03:48:28.714Z,-0.24
2023-01-23T03:50:55.297Z,-0.21
2023-01-23T03:53:21.795Z,-0.21
2023-01-23T03:55:49.402Z,-0.25
2023-01-23T03:58:15.813Z,-0.18
2023-01-23T04:00:42.323Z,-0.14
2023-01-23T04:03:08.974Z,-0.16
2023-01-23T04:05:35.429Z,-0.13
2023-01-23T04:08:02.660Z,-0.12
2023-01-23T04:10:29.381Z,-0.13
2023-01-23T04:12:55.736Z,-0.15
2023-01-23T04:15:22.506Z,-0.15
2023-01-23T04:17:49.191Z,-0.14
2023-01-23T04:20:16.019Z,-0.13
2023-01-23T04:22:42.643Z,-0.11
2023-01-23T04:25:10.102Z,-0.12
2023-01-23T04:27:36.615Z,-0.16
2023-01-23T04:30:03.602Z,-0.21
2023-01-23T04:32:30.163Z,-0.30
2023-01-23T04:34:56.639Z,-0.29
2023-01-23T04:37:23.157Z,-0.28
2023-01-23T04:39:49.758Z,-0.28
2023-01-23T04:42:16.285Z,-0.26
2023-01-23T04:44:42.694Z,-0.27
2023-01-23T04:47:09.348Z,-0.34
2023-01-23T04:49:35.823Z,-0.35
2023-01-23T04:52:02.423Z,-0.35
2023-01-23T04:54:28.824Z,-0.39
2023-01-23T04:56:55.371Z,-0.35
2023-01-23T04:59:22.745Z,-0.29
2023-01-23T05:01:49.230Z,-0.25
2023-01-23T05:04:15.637Z,-0.22
2023-01-23T05:06:42.170Z,-0.26
2023-01-23T05:09:08.828Z,-0.25
2023-01-23T05:11:35.295Z,-0.27
2023-01-23T05:14:02.008Z,-0.27
2023-01-23T05:16:28.505Z,-0.25
2023-01-23T05:18:54.873Z,-0.24
2023-01-23T05:21:21.314Z,-0.28
2023-01-23T05:23:47.701Z,-0.27
2023-01-23T05:26:14.202Z,-0.26
2023-01-23T05:28:40.646Z,-0.24
2023-01-23T05:31:07.147Z,-0.22
2023-01-23T05:33:34.918Z,-0.21
2023-01-23T05:36:02.255Z,-0.18
2023-01-23T05:38:28.752Z,-0.15
2023-01-23T05:40:55.120Z,-0.13
2023-01-23T05:43:21.699Z,-0.15
2023-01-23T05:45:48.180Z,-0.10
2023-01-23T05:48:15.137Z,-0.11
2023-01-23T05:50:41.764Z,-0.14
2023-01-23T05:53:08.297Z,-0.13
2023-01-23T05:55:34.687Z,-0.12
2023-01-23T05:58:01.279Z,-0.12
2023-01-23T06:00:27.781Z,-0.09
2023-01-23T06:02:54.346Z,-0.09
2023-01-23T06:05:20.874Z,-0.11
2023-01-23T06:07:47.293Z,-0.06
2023-01-23T06:10:14.076Z,-0.03
2023-01-23T06:12:40.586Z,-0.06
2023-01-23T06:15:07.807Z,-0.12
2023-01-23T06:17:34.270Z,-0.11
2023-01-23T06:20:00.797Z,-0.14
2023-01-23T06:22:27.286Z,-0.12
2023-01-23T06:24:53.873Z,-0.12
2023-01-23T06:27:20.367Z,-0.07
2023-01-23T06:29:47.068Z,-0.12
2023-01-23T06:32:13.662Z,-0.10
2023-01-23T06:34:40.256Z,-0.10
2023-01-23T06:37:06.738Z,-0.07
2023-01-23T06:39:34.327Z,-0.02
2023-01-23T06:42:00.766Z,0.01
2023-01-23T06:44:27.309Z,0.05
2023-01-23T06:46:53.916Z,0.05
2023-01-23T06:49:20.334Z,0.03
2023-01-23T06:51:46.835Z,0.02
2023-01-23T06:54:13.229Z,0.08
2023-01-23T06:56:39.706Z,0.02
2023-01-23T06:59:06.380Z,0.02
2023-01-23T07:01:33.092Z,0.02
2023-01-23T07:03:59.571Z,0.01
2023-01-23T07:06:26.130Z,-0.03
2023-01-23T07:08:52.576Z,-0.03
2023-01-23T07:11:19.505Z,-0.14
2023-01-23T07:13:46.136Z,-0.16
2023-01-23T07:16:12.715Z,-0.17
2023-01-23T07:18:39.203Z,-0.13
2023-01-23T07:21:06.794Z,-0.03
2023-01-23T07:23:34.301Z,-0.10
2023-01-23T07:26:03.869Z,-0.11
2023-01-23T07:28:30.932Z,-0.05
2023-01-23T07:30:59.638Z,-0.07
2023-01-23T07:33:26.645Z,-0.02
2023-01-23T07:35:53.266Z,0.02
2023-01-23T07:38:20.065Z,0.01
2023-01-23T07:40:46.554Z,0.02
2023-01-23T07:43:12.940Z,0.04
2023-01-23T07:45:39.435Z,0.09
2023-01-23T07:48:06.038Z,0.08
2023-01-23T07:50:32.795Z,0.10
2023-01-23T07:53:00.321Z,0.10
2023-01-23T07:55:26.802Z,0.13
2023-01-23T07:57:53.184Z,0.17
2023-01-23T08:00:21.183Z,0.22
2023-01-23T08:02:49.266Z,0.19
2023-01-23T08:05:15.872Z,0.20
2023-01-23T08:07:42.775Z,0.21
2023-01-23T08:10:10.058Z,0.24
2023-01-23T08:12:36.542Z,0.29
2023-01-23T08:15:03.093Z,0.32
2023-01-23T08:17:29.673Z,0.39
2023-01-23T08:19:56.254Z,0.39
2023-01-23T08:22:22.935Z,0.40
2023-01-23T08:24:49.434Z,0.36
2023-01-23T08:27:16.014Z,0.39
2023-01-23T08:29:42.680Z,0.45
2023-01-23T08:32:09.626Z,0.46
2023-01-23T08:34:36.119Z,0.47
2023-01-23T08:37:03.872Z,0.43
2023-01-23T08:39:30.337Z,0.42
2023-01-23T08:41:57.014Z,0.47
2023-01-23T08:44:24.149Z,0.49
2023-01-23T08:46:50.860Z,0.56
2023-01-23T08:49:20.133Z,0.61
2023-01-23T08:51:47.101Z,0.67
2023-01-23T08:54:13.557Z,0.70
2023-01-23T08:56:41.278Z,0.73
2023-01-23T08:59:07.819Z,0.77
2023-01-23T09:01:34.491Z,0.77
2023-01-23T09:04:01.169Z,0.82
2023-01-23T09:06:27.956Z,0.87
2023-01-23T09:08:54.638Z,0.87
2023-01-23T09:11:22.711Z,0.97
2023-01-23T09:13:50.774Z,1.04
2023-01-23T09:16:18.466Z,1.09
2023-01-23T09:18:44.968Z,1.05
2023-01-23T09:21:15.490Z,1.15
2023-01-23T09:23:42.321Z,1.22
2023-01-23T09:26:14.349Z,1.25
2023-01-23T09:28:42.639Z,1.42
2023-01-23T09:31:12.950Z,1.41
2023-01-23T09:33:40.891Z,1.37
2023-01-23T09:36:08.295Z,1.50
2023-01-23T09:38:35.294Z,1.48
2023-01-23T09:41:10.409Z,1.54
2023-01-23T09:44:00.282Z,1.66
2023-01-23T09:46:35.386Z,1.71
2023-01-23T09:49:19.986Z,1.78
2023-01-23T09:52:03.941Z,1.73
2023-01-23T09:55:02.905Z,1.75
2023-01-23T09:57:43.660Z,1.78
2023-01-23T10:00:20.631Z,1.87
2023-01-23T10:02:47.749Z,1.82
2023-01-23T10:05:17.041Z,1.83
2023-01-23T10:08:11.276Z,1.86
2023-01-23T10:10:50.269Z,1.93
2023-01-23T10:13:18.650Z,1.88
2023-01-23T10:16:00.848Z,1.89
2023-01-23T10:18:43.173Z,1.92
2023-01-23T10:21:14.231Z,1.87
2023-01-23T10:24:04.589Z,2.01
2023-01-23T10:26:43.117Z,2.01
2023-01-23T10:29:32.597Z,1.94
2023-01-23T10:32:02.463Z,2.00
2023-01-23T10:34:39.880Z,2.06
2023-01-23T10:37:21.661Z,2.06
2023-01-23T10:40:05.323Z,1.93
2023-01-23T10:42:32.026Z,1.86
2023-01-23T10:44:58.687Z,1.88
2023-01-23T10:47:38.796Z,1.82
2023-01-23T10:50:07.305Z,1.90
2023-01-23T10:52:45.564Z,1.98
2023-01-23T10:55:18.568Z,2.09
2023-01-23T10:57:52.799Z,1.87
2023-01-23T11:00:30.190Z,1.85
2023-01-23T11:02:56.955Z,1.96
2023-01-23T11:05:52.437Z,2.04
2023-01-23T11:09:00.395Z,2.06
2023-01-23T11:11:32.743Z,2.17
2023-01-23T11:14:13.943Z,2.19
2023-01-23T11:16:40.758Z,2.21
2023-01-23T11:19:07.088Z,2.17
2023-01-23T11:21:36.544Z,2.23
2023-01-23T11:24:30.631Z,2.20
2023-01-23T11:27:15.642Z,2.38
2023-01-23T11:30:19.719Z,2.30
2023-01-23T11:32:59.888Z,2.19
2023-01-23T11:35:43.632Z,2.13
2023-01-23T11:38:17.973Z,2.12
2023-01-23T11:40:48.023Z,2.21
2023-01-23T11:43:16.007Z,2.11
2023-01-23T11:45:49.165Z,2.05
2023-01-23T11:48:27.882Z,2.05
2023-01-23T11:51:28.559Z,2.07
2023-01-23T11:53:55.092Z,2.19
2023-01-23T11:56:33.716Z,2.29
2023-01-23T11:59:19.042Z,2.25
2023-01-23T12:02:42.909Z,2.43
2023-01-23T12:05:12.397Z,2.45
2023-01-23T12:08:04.376Z,2.36
2023-01-23T12:10:57.062Z,2.20
2023-01-23T12:13:42.956Z,2.29
2023-01-23T12:16:09.707Z,2.24
2023-01-23T12:19:10.161Z,2.20
2023-01-23T12:21:56.133Z,2.13
2023-01-23T12:24:51.695Z,2.33
2023-01-23T12:27:44.577Z,2.31
2023-01-23T12:30:26.566Z,2.39
2023-01-23T12:33:14.339Z,2.39
2023-01-23T12:35:56.886Z,2.36
2023-01-23T12:38:53.546Z,2.39
2023-01-23T12:41:26.017Z,2.19
2023-01-23T12:44:01.893Z,2.15
2023-01-23T12:47:00.833Z,2.23
2023-01-23T12:49:31.827Z,2.13
2023-01-23T12:52:23.649Z,2.16
2023-01-23T12:55:14.021Z,2.24
2023-01-23T12:57:59.897Z,2.22
2023-01-23T13:00:29.934Z,2.32
2023-01-23T13:03:15.346Z,2.34
2023-01-23T13:05:58.832Z,2.27
2023-01-23T13:09:12.624Z,2.23
2023-01-23T13:12:02.333Z,2.32
2023-01-23T13:14:43.467Z,2.23
2023-01-23T13:17:37.742Z,2.24
2023-01-23T13:20:43.198Z,2.18
2023-01-23T13:23:28.233Z,2.17
2023-01-23T13:26:22.950Z,2.04
2023-01-23T13:28:57.568Z,2.09
2023-01-23T13:31:24.178Z,2.17
2023-01-23T13:33:51.728Z,2.14
2023-01-23T13:36:33.415Z,2.21
2023-01-23T13:39:17.154Z,2.11
2023-01-23T13:41:51.052Z,2.06
2023-01-23T13:44:42.052Z,2.11
2023-01-23T14:21:42.468Z,2.12
2023-01-23T14:24:29.331Z,2.09
2023-01-23T14:27:07.343Z,2.08
2023-01-23T14:29:35.416Z,2.09
2023-01-23T14:32:02.046Z,2.09
2023-01-23T14:34:28.528Z,2.10
2023-01-23T14:37:02.642Z,2.23
2023-01-23T14:39:31.243Z,2.20
2023-01-23T14:42:02.371Z,2.13
2023-01-23T14:44:38.249Z,2.11
2023-01-23T14:47:05.322Z,2.05
2023-01-23T14:49:36.613Z,2.11
2023-01-23T14:52:05.850Z,2.05
2023-01-23T14:54:35.535Z,2.11
2023-01-23T14:57:05.723Z,2.12
2023-01-23T14:59:41.573Z,2.06
2023-01-23T15:02:26.438Z,2.08
2023-01-23T15:05:27.475Z,1.99
2023-01-23T15:07:59.950Z,2.10
2023-01-23T15:10:29.314Z,2.11
2023-01-23T15:13:13.301Z,2.13
2023-01-23T15:15:45.780Z,2.06
2023-01-23T15:18:22.743Z,2.16
2023-01-23T15:20:55.613Z,2.11
2023-01-23T15:23:37.204Z,2.01
2023-01-23T15:26:30.868Z,1.99
2023-01-23T15:29:09.532Z,1.98
2023-01-23T15:31:39.048Z,2.04
2023-01-23T15:34:14.579Z,2.07
2023-01-23T15:36:56.319Z,1.99
2023-01-23T15:39:26.817Z,1.93
2023-01-23T15:41:57.375Z,1.94
2023-01-23T15:44:27.971Z,1.90
2023-01-23T15:46:56.037Z,2.05
2023-01-23T15:49:26.264Z,1.90
2023-01-23T15:51:55.533Z,1.95
2023-01-23T15:54:28.283Z,1.90
2023-01-23T15:57:06.671Z,2.01
2023-01-23T15:59:34.859Z,1.98
2023-01-23T16:02:01.300Z,1.80
2023-01-23T16:04:27.876Z,1.87
2023-01-23T16:06:54.493Z,1.76
2023-01-23T16:09:26.031Z,1.65
2023-01-23T16:11:53.100Z,1.68
2023-01-23T16:14:20.049Z,1.68
2023-01-23T16:16:46.681Z,1.63
2023-01-23T16:19:13.283Z,1.66
2023-01-23T16:21:45.794Z,1.65
2023-01-23T16:24:22.639Z,1.79
2023-01-23T16:26:49.793Z,1.84
2023-01-23T16:29:30.734Z,1.76
2023-01-23T16:31:59.281Z,1.73
2023-01-23T16:34:26.074Z,1.75
2023-01-23T16:36:59.105Z,1.67
2023-01-23T16:39:27.405Z,1.66
2023-01-23T16:41:54.843Z,1.61
2023-01-23T16:44:23.723Z,1.54
2023-01-23T16:46:52.171Z,1.49
2023-01-23T16:49:19.400Z,1.55
2023-01-23T16:51:58.715Z,1.51
2023-01-23T16:54:26.132Z,1.52
2023-01-23T16:56:54.611Z,1.47
2023-01-23T16:59:25.063Z,1.60
2023-01-23T17:01:52.099Z,1.49
2023-01-23T17:04:21.060Z,1.50
2023-01-23T17:06:48.787Z,1.50
2023-01-23T17:09:16.338Z,1.50
2023-01-23T17:11:50.494Z,1.46
2023-01-23T17:14:28.379Z,1.48
2023-01-23T17:17:01.018Z,1.51
2023-01-23T17:19:32.332Z,1.63
2023-01-23T17:22:00.827Z,1.56
2023-01-23T17:24:27.347Z,1.63
2023-01-23T17:26:54.061Z,1.63
2023-01-23T17:29:20.746Z,1.60
2023-01-23T17:31:48.754Z,1.55
2023-01-23T17:34:24.260Z,1.45
2023-01-23T17:36:52.813Z,1.53
2023-01-23T17:39:31.682Z,1.52
2023-01-23T17:41:58.044Z,1.52
2023-01-23T17:44:24.415Z,1.59
2023-01-23T17:46:54.546Z,1.56
2023-01-23T17:49:27.278Z,1.49
2023-01-23T17:51:54.795Z,1.59
2023-01-23T17:54:21.559Z,1.56
2023-01-23T17:56:48.150Z,1.50
2023-01-23T17:59:14.600Z,1.49
2023-01-23T18:01:41.038Z,1.50
2023-01-23T18:04:16.284Z,1.55
2023-01-23T18:06:42.653Z,1.44
2023-01-23T18:09:09.135Z,1.41
2023-01-23T18:11:37.976Z,1.52
2023-01-23T18:14:30.707Z,1.54
2023-01-23T18:16:57.597Z,1.55
2023-01-23T18:19:25.496Z,1.48
2023-01-23T18:21:54.417Z,1.49
2023-01-23T18:24:24.435Z,1.46
2023-01-23T18:27:11.675Z,1.48
2023-01-23T18:29:46.856Z,1.53
2023-01-23T18:32:33.230Z,1.46
2023-01-23T18:35:18.183Z,1.56
2023-01-23T18:37:44.495Z,1.52
2023-01-23T18:40:39.799Z,1.41
2023-01-23T18:43:18.441Z,1.42
2023-01-23T18:45:45.168Z,1.35
2023-01-23T18:48:24.654Z,1.39
2023-01-23T18:51:27.361Z,1.36
2023-01-23T18:54:18.061Z,1.39
2023-01-23T18:57:11.573Z,1.29
2023-01-23T18:59:45.111Z,1.39
2023-01-23T19:02:30.793Z,1.44
2023-01-23T19:05:15.993Z,1.41
2023-01-23T19:07:44.992Z,1.43
2023-01-23T19:10:17.044Z,1.37
2023-01-23T19:13:01.642Z,1.36
2023-01-23T19:15:31.823Z,1.35
2023-01-23T19:18:11.889Z,1.39
2023-01-23T19:20:50.136Z,1.45
2023-01-23T19:23:31.766Z,1.55
2023-01-23T19:25:58.745Z,1.53
2023-01-23T19:28:25.375Z,1.47
2023-01-23T19:30:52.256Z,1.36
2023-01-23T19:33:20.293Z,1.41
2023-01-23T19:35:48.336Z,1.32
2023-01-23T19:38:15.269Z,1.37
2023-01-23T19:40:42.744Z,1.33
2023-01-23T19:43:19.385Z,1.35
2023-01-23T19:45:46.760Z,1.33
2023-01-23T19:48:13.695Z,1.42
2023-01-23T19:50:40.481Z,1.34
2023-01-23T19:53:10.498Z,1.50
2023-01-23T19:55:38.224Z,1.42
2023-01-23T19:58:05.348Z,1.38
2023-01-23T20:00:33.818Z,1.37
2023-01-23T20:03:00.299Z,1.43
2023-01-23T20:05:26.822Z,1.46
2023-01-23T20:07:56.547Z,1.55
2023-01-23T20:10:23.041Z,1.50
2023-01-23T20:12:55.486Z,1.47
2023-01-23T20:15:24.785Z,1.41
2023-01-23T20:17:52.817Z,1.46
2023-01-23T20:20:20.949Z,1.47
2023-01-23T20:22:47.562Z,1.57
2023-01-23T20:25:16.279Z,1.39
2023-01-23T20:27:43.480Z,1.33
2023-01-23T20:30:15.982Z,1.31
2023-01-23T20:32:42.503Z,1.32
2023-01-23T20:35:09.530Z,1.35
2023-01-23T20:37:35.940Z,1.36
2023-01-23T20:40:02.383Z,1.33
2023-01-23T20:42:29.458Z,1.33
2023-01-23T20:44:55.841Z,1.33
2023-01-23T20:47:22.270Z,1.34
2023-01-23T20:49:49.268Z,1.31
2023-01-23T20:52:34.333Z,1.29
2023-01-23T20:55:01.348Z,1.54
2023-01-23T20:57:48.123Z,1.40
2023-01-23T21:00:15.090Z,1.53
2023-01-23T21:02:41.663Z,1.50
2023-01-23T21:05:08.234Z,1.58
2023-01-23T21:07:34.670Z,1.58
2023-01-23T21:10:01.160Z,1.52
2023-01-23T21:12:27.707Z,1.57
2023-01-23T21:14:54.150Z,1.57
2023-01-23T21:17:20.631Z,1.51
2023-01-23T21:19:47.987Z,1.45
2023-01-23T21:22:14.474Z,1.41
2023-01-23T21:24:40.949Z,1.36
2023-01-23T21:27:07.505Z,1.33
2023-01-23T21:29:34.420Z,1.37
2023-01-23T21:32:00.926Z,1.57
2023-01-23T21:34:27.436Z,1.50
2023-01-23T21:36:53.975Z,1.25
2023-01-23T21:39:20.765Z,1.22
2023-01-23T21:41:47.216Z,1.19
2023-01-23T21:44:14.276Z,1.28
2023-01-23T21:46:41.385Z,1.33
2023-01-23T21:49:08.328Z,1.33
2023-01-23T21:51:34.805Z,1.44
2023-01-23T21:54:01.261Z,1.40
2023-01-23T21:56:27.676Z,1.35
2023-01-23T21:58:55.221Z,1.28
2023-01-23T22:01:32.023Z,1.34
2023-01-23T22:04:00.108Z,1.34
2023-01-23T22:06:26.680Z,1.31
2023-01-23T22:08:53.676Z,1.29
2023-01-23T22:11:20.348Z,1.26
2023-01-23T22:13:47.041Z,1.46
2023-01-23T22:16:13.629Z,1.35
2023-01-23T22:18:40.058Z,1.38
2023-01-23T22:21:07.648Z,1.35
2023-01-23T22:23:34.096Z,1.40
2023-01-23T22:26:07.885Z,1.55
2023-01-23T22:28:37.827Z,1.48
2023-01-23T22:31:06.815Z,1.58
2023-01-23T22:33:40.395Z,1.62
2023-01-23T22:36:08.838Z,1.54
2023-01-23T22:38:35.574Z,1.56
2023-01-23T22:41:05.193Z,1.67
2023-01-23T22:43:33.033Z,1.71
2023-01-23T22:46:06.191Z,1.62
2023-01-23T22:48:36.984Z,1.68
2023-01-23T22:51:04.723Z,1.56
2023-01-23T22:53:31.283Z,1.61
2023-01-23T22:55:58.008Z,1.64
2023-01-23T22:58:24.853Z,1.57
2023-01-23T23:00:53.188Z,1.49
2023-01-23T23:03:20.913Z,1.46
2023-01-23T23:05:48.024Z,1.44
2023-01-23T23:08:14.490Z,1.59
2023-01-23T23:10:40.981Z,1.54
2023-01-23T23:13:07.332Z,1.59
2023-01-23T23:15:34.994Z,1.61
2023-01-23T23:18:01.435Z,1.54
2023-01-23T23:20:27.954Z,1.55
2023-01-23T23:22:54.361Z,1.50
2023-01-23T23:25:21.114Z,1.46
2023-01-23T23:27:47.807Z,1.41
2023-01-23T23:30:14.641Z,1.52
2023-01-23T23:32:41.002Z,1.45
2023-01-23T23:35:08.211Z,1.48
2023-01-23T23:37:34.876Z,1.52
2023-01-23T23:40:01.228Z,1.45
2023-01-23T23:42:27.635Z,1.58
2023-01-23T23:44:54.108Z,1.63
2023-01-23T23:47:20.931Z,1.53
2023-01-23T23:49:47.465Z,1.56
2023-01-23T23:52:13.903Z,1.53
2023-01-23T23:54:40.326Z,1.50
2023-01-23T23:57:06.683Z,1.46
2023-01-23T23:59:33.254Z,1.49
